»·PEaware :: N515SE KSNA-KBUR

N515SE :: KSNA-KBUR

FLIGHT INFORMATION

Flight Status: Arrived
Operator: Privately registered:
United States
More flights under this callsign
Pilot: Sean E. (24740)
Aircraft: CIRRUS SR-22
(SR22)
More flights by this aircraft type
Origin: KSNA John Wayne-Orange Co
United States
Destination: KBUR Bob Hope-Burbank
United States
More flights between these airports :: More routes between these airports
Route: +SLI V23 POPPR SMO125 SMO SMO311 SILEX+
File this flight plan on PilotEdge
Remarks:
Altitude:
(Current/Filed)
4,000ft
Speed:
(Current/Filed)
140kts
Departed: 30-Nov-20 09:04 PM
Arrived: 30-Nov-20 09:37 PM
Distance/Time
Traveled:
40nm/0:33
Distance/Time
To Go:
Arrived

Flight Plot

Page will automatically refresh every two minutes.


Map Options




Map Legend


Flown Route
Filed Route
Departure Airport
Arrival Airport
Navaid (VOR, NDB)
Fix

Horizontal Profiles

Position Reports

Time Latitude Longitude Heading Altitude Ground
Speed
30-Nov-20 20:47 33.675917 -117.871089 4 52ft 0kts
30-Nov-20 20:48 33.675917 -117.871089 4 52ft 0kts
30-Nov-20 20:49 33.675917 -117.871089 4 52ft 0kts
30-Nov-20 20:50 33.675917 -117.871089 4 52ft 0kts
30-Nov-20 20:51 33.675917 -117.871089 4 52ft 0kts
30-Nov-20 20:52 33.675917 -117.871089 4 52ft 0kts
30-Nov-20 20:53 33.675917 -117.871089 4 52ft 0kts
30-Nov-20 20:54 33.675917 -117.871089 4 52ft 0kts
30-Nov-20 20:55 33.675917 -117.871089 4 52ft 0kts
30-Nov-20 20:56 33.675917 -117.871089 4 52ft 0kts
30-Nov-20 20:57 33.675917 -117.871089 4 52ft 0kts
30-Nov-20 20:58 33.675917 -117.871089 4 52ft 0kts
30-Nov-20 20:59 33.675917 -117.871089 4 52ft 0kts
30-Nov-20 21:00 33.675917 -117.871089 4 52ft 0kts
30-Nov-20 21:01 33.676106 -117.870371 67 54ft 13kts
30-Nov-20 21:02 33.681212 -117.866479 115 43ft 0kts
30-Nov-20 21:03 33.676882 -117.868100 207 75ft 80kts
30-Nov-20 21:04 33.655869 -117.886009 231 1193ft 113kts
30-Nov-20 21:05 33.635304 -117.915503 230 2520ft 116kts
30-Nov-20 21:06 33.623318 -117.949173 287 3651ft 126kts
30-Nov-20 21:07 33.642152 -117.990270 302 3818ft 142kts
30-Nov-20 21:08 33.663712 -118.030139 302 3829ft 142kts
30-Nov-20 21:09 33.685570 -118.069863 303 3832ft 143kts
30-Nov-20 21:10 33.708798 -118.108734 320 3832ft 143kts
30-Nov-20 21:11 33.747179 -118.120518 349 3831ft 144kts
30-Nov-20 21:12 33.778209 -118.148480 312 3831ft 143kts
30-Nov-20 21:13 33.800682 -118.178956 306 3831ft 143kts
30-Nov-20 21:14 33.816921 -118.222037 290 3831ft 143kts
30-Nov-20 21:15 33.833726 -118.264999 294 3831ft 143kts
30-Nov-20 21:16 33.854459 -118.303036 319 3832ft 143kts
30-Nov-20 21:17 33.886473 -118.331635 321 3832ft 143kts
30-Nov-20 21:18 33.917076 -118.362466 320 3832ft 143kts
30-Nov-20 21:19 33.947696 -118.393433 318 3831ft 143kts
30-Nov-20 21:20 33.978187 -118.424350 318 3832ft 143kts
30-Nov-20 21:21 34.008794 -118.455292 320 3832ft 143kts
30-Nov-20 21:22 34.040442 -118.484626 322 3832ft 143kts
30-Nov-20 21:23 34.072404 -118.513250 322 3835ft 144kts
30-Nov-20 21:24 34.104685 -118.542135 322 3831ft 143kts
30-Nov-20 21:25 34.136797 -118.570843 322 3832ft 144kts
30-Nov-20 21:26 34.169050 -118.599651 322 3832ft 143kts
30-Nov-20 21:27 34.201108 -118.628277 322 3832ft 143kts
30-Nov-20 21:28 34.233494 -118.656456 339 3831ft 144kts
30-Nov-20 21:29 34.243452 -118.621821 115 3828ft 146kts
30-Nov-20 21:30 34.222961 -118.579573 122 3832ft 146kts
30-Nov-20 21:31 34.201236 -118.538277 119 3004ft 134kts
30-Nov-20 21:32 34.199520 -118.499283 83 2846ft 111kts
30-Nov-20 21:33 34.198663 -118.458820 89 2240ft 130kts
30-Nov-20 21:34 34.198347 -118.415096 89 1456ft 128kts
30-Nov-20 21:35 34.198035 -118.375282 92 866ft 99kts
30-Nov-20 21:36 34.198606 -118.360249 352 717ft 0kts
30-Nov-20 21:37 34.198901 -118.358305 66 715ft 20kts
30-Nov-20 21:38 34.200778 -118.359064 70 722ft 0kts

Navigation Log

Ident Type
Flight plan parsing failed, navigation log unavailable